BRIO2: Bridgeport 4E

                                SHEF ID:       BRIO2     Canadian River at Bridgeport, OK
STATION TYPE:
Regulating: Stage = 15.00, Flow = 8372

STAGE RIV-FLOW BAT-LOAD
ft cfs volt
Ccp-Rev Ccp-Rev Ccp-Rev
(America/Chicago)
10/25 00:00 10.06 191 12.75
10/25 01:00 10.11 206 12.73
10/25 02:00 10.12 209 12.72
10/25 03:00 10.10 203 12.71
10/25 04:00 10.14 216 12.70
10/25 05:00 10.15 219 12.67
10/25 06:00 10.19 232 12.64
10/25 07:00 10.22 243 12.63
10/25 08:00 10.29 268 12.61
10/25 09:00 10.36 296 12.64
10/25 10:00 10.37 300 12.73
10/25 11:00 10.53 370 12.66
10/25 12:00 10.70 444 13.19
10/25 13:00 10.79 487 13.24
10/25 14:00 10.83 506 13.21
10/25 15:00 10.88 532 13.22
10/25 16:00 10.87 527 13.16
10/25 17:00 10.89 537 13.03
10/25 18:00 10.91 548 12.91
10/25 19:00 10.88 532 12.82
10/25 20:00 10.86 522 12.77
10/25 21:00 10.82 501 12.75
10/25 22:00 10.79 487 12.72
10/25 23:00 10.75 467 12.70
Data processed at Thu 26Oct2023 04:55 GMT

Parsing this webpage?

Checkout our new Data API! CWMSDataAPI (CDA)

All information presented herein is the property of the government of the United States of America and may be revised or deleted at any time without prior notice. Dissemination of this information without the expressed written consent of the Public Affairs Office, Tulsa District U.S. Army Corps of Engineers is strictly prohibited. These data are gathered electronically and, as presented, have NOT undergone any form of quality control. These data are NOT guaranteed to be valid or correct.